createdAt,value
2018-04-17T00:00:46.888Z,99.90
2018-04-17T00:03:16.118Z,99.90
2018-04-17T00:05:45.369Z,99.90
2018-04-17T00:08:14.032Z,99.90
2018-04-17T00:10:42.625Z,99.90
2018-04-17T00:13:11.114Z,99.90
2018-04-17T00:15:39.401Z,99.90
2018-04-17T00:18:07.893Z,99.90
2018-04-17T00:20:36.393Z,99.90
2018-04-17T00:23:04.593Z,99.90
2018-04-17T00:25:33.835Z,99.90
2018-04-17T00:28:03.192Z,99.90
2018-04-17T00:30:32.126Z,99.90
2018-04-17T00:33:00.678Z,99.90
2018-04-17T00:35:29.146Z,99.90
2018-04-17T00:37:58.408Z,99.90
2018-04-17T00:40:26.883Z,99.90
2018-04-17T00:42:55.349Z,99.90
2018-04-17T00:45:23.833Z,99.90
2018-04-17T00:47:52.310Z,99.90
2018-04-17T00:50:20.877Z,99.90
2018-04-17T00:52:49.360Z,99.90
2018-04-17T00:55:17.977Z,99.90
2018-04-17T00:57:46.613Z,99.90
2018-04-17T01:00:15.657Z,99.90
2018-04-17T01:02:44.141Z,99.90
2018-04-17T01:05:12.637Z,99.90
2018-04-17T01:07:41.112Z,99.90
2018-04-17T01:10:09.582Z,99.90
2018-04-17T01:12:38.073Z,99.90
2018-04-17T01:15:06.677Z,99.90
2018-04-17T01:17:35.160Z,99.90
2018-04-17T01:20:03.305Z,99.90
2018-04-17T01:22:31.792Z,99.90
2018-04-17T01:25:00.249Z,99.90
2018-04-17T01:27:28.887Z,99.90
2018-04-17T01:29:57.401Z,99.90
2018-04-17T01:32:26.755Z,99.90
2018-04-17T01:34:55.261Z,99.90
2018-04-17T01:37:23.727Z,99.90
2018-04-17T01:39:53.019Z,99.90
2018-04-17T01:42:21.649Z,99.90
2018-04-17T01:44:50.892Z,99.90
2018-04-17T01:47:19.409Z,99.90
2018-04-17T01:49:49.409Z,99.90
2018-04-17T01:52:17.897Z,99.90
2018-04-17T01:54:46.366Z,99.90
2018-04-17T01:57:15.700Z,99.90
2018-04-17T01:59:44.337Z,99.90
2018-04-17T02:02:13.021Z,99.90
2018-04-17T02:04:41.509Z,99.90
2018-04-17T02:07:10.004Z,99.90
2018-04-17T02:09:38.475Z,99.90
2018-04-17T02:12:07.017Z,99.90
2018-04-17T02:14:36.262Z,99.90
2018-04-17T02:17:06.333Z,99.90
2018-04-17T02:19:34.810Z,99.90
2018-04-17T02:22:03.317Z,99.90
2018-04-17T02:24:32.549Z,99.90
2018-04-17T02:27:01.041Z,99.90
2018-04-17T02:29:29.632Z,99.90
2018-04-17T02:31:58.194Z,99.90
2018-04-17T02:34:26.669Z,99.90
2018-04-17T02:36:55.385Z,99.90
2018-04-17T02:39:23.947Z,99.90
2018-04-17T02:41:52.429Z,99.90
2018-04-17T02:44:20.966Z,99.90
2018-04-17T02:46:49.444Z,99.90
2018-04-17T02:49:17.930Z,99.90
2018-04-17T02:51:46.414Z,99.90
2018-04-17T02:54:14.965Z,99.90
2018-04-17T02:56:43.444Z,99.90
2018-04-17T02:59:11.936Z,99.90
2018-04-17T03:01:40.422Z,99.90
2018-04-17T03:04:08.902Z,99.90
2018-04-17T03:06:37.402Z,99.90
2018-04-17T03:09:07.473Z,99.90
2018-04-17T03:11:39.189Z,99.90
2018-04-17T03:14:07.701Z,99.90
2018-04-17T03:16:36.309Z,99.90
2018-04-17T03:19:04.785Z,99.90
2018-04-17T03:21:33.264Z,99.90
2018-04-17T03:24:01.877Z,99.90
2018-04-17T03:26:30.365Z,99.90
2018-04-17T03:28:58.940Z,99.90
2018-04-17T03:31:27.529Z,99.90
2018-04-17T03:33:56.096Z,99.90
2018-04-17T03:36:24.577Z,99.90
2018-04-17T03:38:53.048Z,99.90
2018-04-17T03:41:22.284Z,99.90
2018-04-17T03:43:50.768Z,99.90
2018-04-17T03:46:20.046Z,99.90
2018-04-17T03:48:48.637Z,99.90
2018-04-17T03:51:17.115Z,99.90
2018-04-17T03:53:45.709Z,99.90
2018-04-17T03:56:14.192Z,99.90
2018-04-17T03:58:42.670Z,99.90
2018-04-17T04:01:11.149Z,99.90
2018-04-17T04:03:39.632Z,99.90
2018-04-17T04:06:08.093Z,99.90
2018-04-17T04:08:37.356Z,99.90
2018-04-17T04:11:05.849Z,99.90
2018-04-17T04:13:34.313Z,99.90
2018-04-17T04:16:02.873Z,99.90
2018-04-17T04:18:42.574Z,99.90
2018-04-17T04:21:23.081Z,99.90
2018-04-17T04:24:16.453Z,99.90
2018-04-17T04:26:44.936Z,99.90
2018-04-17T04:29:13.413Z,99.90
2018-04-17T04:31:42.034Z,99.90
2018-04-17T04:34:10.553Z,99.90
2018-04-17T04:36:39.059Z,99.90
2018-04-17T04:39:07.553Z,99.90
2018-04-17T04:41:36.038Z,99.90
2018-04-17T04:44:04.673Z,99.90
2018-04-17T04:46:33.911Z,99.90
2018-04-17T04:49:02.407Z,99.90
2018-04-17T04:51:30.882Z,99.90
2018-04-17T04:53:59.419Z,99.90
2018-04-17T04:56:28.668Z,99.90
2018-04-17T04:58:57.168Z,99.90
2018-04-17T05:01:25.650Z,99.90
2018-04-17T05:03:54.161Z,99.90
2018-04-17T05:06:22.637Z,99.90
2018-04-17T05:08:51.133Z,99.90
2018-04-17T05:11:19.796Z,99.90
2018-04-17T05:13:48.083Z,99.90
2018-04-17T05:16:16.454Z,99.90
2018-04-17T05:18:45.018Z,99.90
2018-04-17T05:21:13.507Z,99.90
2018-04-17T05:23:41.752Z,99.90
2018-04-17T05:26:10.249Z,99.90
2018-04-17T05:28:38.749Z,99.90
2018-04-17T05:31:07.328Z,99.90
2018-04-17T05:33:35.805Z,99.90
2018-04-17T05:36:04.297Z,99.90
2018-04-17T05:38:32.793Z,99.90
2018-04-17T05:41:01.352Z,99.90
2018-04-17T05:43:29.825Z,99.90
2018-04-17T05:45:58.366Z,99.90
2018-04-17T05:48:28.376Z,99.90
2018-04-17T05:50:56.905Z,99.90
2018-04-17T05:53:25.385Z,99.90
2018-04-17T05:55:54.841Z,99.90
2018-04-17T05:58:23.597Z,99.90
2018-04-17T06:00:52.065Z,99.90
2018-04-17T06:03:20.549Z,99.90
2018-04-17T06:05:49.039Z,99.90
2018-04-17T06:08:17.577Z,99.90
2018-04-17T06:10:47.653Z,99.90
2018-04-17T06:13:16.138Z,99.90
2018-04-17T06:15:44.773Z,99.90
2018-04-17T06:18:13.296Z,99.90
2018-04-17T06:20:41.549Z,99.90
2018-04-17T06:23:10.802Z,99.90
2018-04-17T06:25:39.414Z,99.90
2018-04-17T06:28:07.874Z,99.90
2018-04-17T06:30:36.440Z,99.90
2018-04-17T06:33:05.017Z,99.90
2018-04-17T06:35:33.509Z,99.90
2018-04-17T06:38:01.977Z,99.90
2018-04-17T06:40:30.458Z,99.90
2018-04-17T06:42:59.872Z,99.90
2018-04-17T06:45:28.361Z,99.90
2018-04-17T06:47:56.956Z,99.90
2018-04-17T06:50:25.505Z,99.90
2018-04-17T06:52:54.015Z,99.90
2018-04-17T06:55:23.425Z,99.90
2018-04-17T06:57:51.688Z,99.90
2018-04-17T07:00:20.262Z,99.90
2018-04-17T07:02:48.823Z,99.90
2018-04-17T07:05:18.094Z,99.90
2018-04-17T07:07:46.773Z,99.90
2018-04-17T07:10:15.241Z,99.90
2018-04-17T07:12:43.730Z,99.90
2018-04-17T07:15:12.217Z,99.90
2018-04-17T07:17:40.701Z,99.90
2018-04-17T07:20:09.195Z,99.90
2018-04-17T07:22:37.717Z,99.90
2018-04-17T07:25:05.891Z,99.90
2018-04-17T07:27:35.154Z,99.90
2018-04-17T07:30:03.800Z,99.90
2018-04-17T07:32:32.264Z,99.90
2018-04-17T07:35:00.760Z,99.90
2018-04-17T07:37:29.330Z,99.90
2018-04-17T07:39:57.827Z,99.90
2018-04-17T07:42:26.294Z,99.90
2018-04-17T07:44:54.797Z,99.90
2018-04-17T07:47:32.146Z,99.90
2018-04-17T07:50:01.409Z,99.90
2018-04-17T07:52:29.902Z,99.90
2018-04-17T07:54:59.161Z,99.90
2018-04-17T07:57:28.553Z,99.90
2018-04-17T07:59:58.074Z,99.90
2018-04-17T08:02:27.101Z,99.90
2018-04-17T08:04:56.944Z,99.90
2018-04-17T08:07:25.992Z,99.90
2018-04-17T08:09:54.537Z,99.90
2018-04-17T08:12:23.841Z,99.90
2018-04-17T08:14:53.105Z,99.90
2018-04-17T08:17:21.661Z,99.90
2018-04-17T08:19:50.142Z,99.90
2018-04-17T08:22:18.829Z,99.90
2018-04-17T08:24:47.309Z,99.90
2018-04-17T08:27:15.792Z,99.90
2018-04-17T08:29:44.262Z,99.90
2018-04-17T08:32:12.738Z,99.90
2018-04-17T08:34:41.292Z,99.90
2018-04-17T08:37:09.853Z,99.90
2018-04-17T08:39:38.397Z,99.90
2018-04-17T08:42:06.913Z,99.90
2018-04-17T08:44:35.377Z,99.90
2018-04-17T08:47:03.919Z,99.90
2018-04-17T08:49:33.180Z,99.90
2018-04-17T08:52:01.686Z,99.90
2018-04-17T08:54:30.300Z,99.90
2018-04-17T08:56:58.981Z,99.90
2018-04-17T08:59:28.307Z,99.90
2018-04-17T09:01:57.506Z,99.90
2018-04-17T09:04:26.093Z,99.90
2018-04-17T09:06:54.578Z,99.90
2018-04-17T09:09:23.073Z,99.90
2018-04-17T09:11:51.601Z,99.90
2018-04-17T09:14:20.233Z,99.90
2018-04-17T09:16:48.756Z,99.90
2018-04-17T09:19:17.257Z,99.90
2018-04-17T09:21:45.737Z,99.90
2018-04-17T09:24:14.990Z,99.90
2018-04-17T09:26:43.656Z,99.90
2018-04-17T09:29:12.202Z,99.90
2018-04-17T09:31:42.326Z,99.90
2018-04-17T09:34:12.332Z,99.90
2018-04-17T09:36:40.812Z,99.90
2018-04-17T09:39:09.373Z,99.90
2018-04-17T09:41:37.862Z,99.90
2018-04-17T09:44:06.341Z,99.90
2018-04-17T09:46:34.831Z,99.90
2018-04-17T09:49:03.317Z,99.90
2018-04-17T09:51:31.882Z,99.90
2018-04-17T09:54:00.575Z,99.90
2018-04-17T09:56:29.063Z,99.90
2018-04-17T09:58:57.576Z,99.90
2018-04-17T10:01:26.215Z,99.90
2018-04-17T13:38:12.744Z,99.90
2018-04-17T13:40:42.007Z,56.90
2018-04-17T13:43:10.584Z,56.80
2018-04-17T13:45:39.078Z,60.40
2018-04-17T13:48:07.589Z,68.70
2018-04-17T13:50:36.833Z,60.40
2018-04-17T18:49:40.366Z,60.60
2018-04-17T18:52:08.872Z,92.70
2018-04-17T18:54:37.717Z,93.20
2018-04-17T18:57:06.980Z,95.40
2018-04-17T18:59:35.470Z,95.30
2018-04-17T19:02:03.651Z,95.70
2018-04-17T19:04:32.213Z,96.00
2018-04-17T19:07:00.489Z,97.50
2018-04-17T19:09:28.981Z,97.00
2018-04-17T19:11:57.601Z,96.60
2018-04-17T19:14:26.900Z,96.50
2018-04-17T19:16:56.154Z,96.50
2018-04-17T19:19:24.639Z,96.50
2018-04-17T19:21:53.142Z,96.70
2018-04-17T19:24:21.684Z,97.40
2018-04-17T19:26:50.270Z,99.90
2018-04-17T19:29:18.776Z,99.90
2018-04-17T19:31:47.259Z,99.90
2018-04-17T19:34:15.782Z,99.90
2018-04-17T19:36:45.184Z,99.90
2018-04-17T19:39:13.911Z,99.90
2018-04-17T19:41:42.497Z,99.90
2018-04-17T19:44:11.081Z,99.90
2018-04-17T19:46:39.625Z,99.90
2018-04-17T19:49:08.121Z,99.90
2018-04-17T19:51:37.442Z,99.90
2018-04-17T19:54:05.932Z,99.90
2018-04-17T19:56:34.429Z,99.90
2018-04-17T19:59:02.950Z,99.90
2018-04-17T20:01:31.449Z,99.90
2018-04-17T20:04:00.749Z,99.90
2018-04-17T20:06:30.014Z,99.90
2018-04-17T20:08:58.572Z,99.90
2018-04-17T20:11:27.251Z,99.90
2018-04-17T20:13:55.820Z,99.90
2018-04-17T20:16:25.089Z,99.90
2018-04-17T20:18:54.447Z,99.90
2018-04-17T20:21:22.940Z,99.90
2018-04-17T20:23:51.689Z,99.90
2018-04-17T20:26:20.996Z,99.90
2018-04-17T20:28:49.663Z,99.90
2018-04-17T20:31:18.936Z,99.90
2018-04-17T20:33:47.433Z,99.90
2018-04-17T20:36:15.998Z,99.90
2018-04-17T20:38:44.609Z,99.90
2018-04-17T20:41:13.085Z,99.90
2018-04-17T20:43:41.319Z,99.90
2018-04-17T20:46:09.624Z,99.90
2018-04-17T20:48:38.040Z,99.90
2018-04-17T20:51:07.062Z,99.90
2018-04-17T20:53:35.430Z,99.90
2018-04-17T20:56:04.420Z,99.90
2018-04-17T20:58:33.440Z,99.90
2018-04-17T21:01:01.973Z,99.90
2018-04-17T21:03:30.235Z,99.90
2018-04-17T21:05:58.494Z,99.90
2018-04-17T21:08:26.755Z,99.90
2018-04-17T21:10:55.029Z,99.90
2018-04-17T21:13:23.337Z,99.90
2018-04-17T21:15:51.601Z,99.90
2018-04-17T21:18:20.181Z,99.90
2018-04-17T21:20:48.558Z,99.90
2018-04-17T21:23:17.238Z,99.90
2018-04-17T21:25:45.480Z,99.90
2018-04-17T21:28:13.974Z,99.90
2018-04-17T21:30:43.225Z,99.90
2018-04-17T21:33:11.714Z,99.90
2018-04-17T21:35:40.266Z,99.90
2018-04-17T21:38:08.752Z,99.90
2018-04-17T21:40:37.266Z,99.90
2018-04-17T21:43:05.754Z,99.90
2018-04-17T21:45:34.251Z,99.90
2018-04-17T21:48:02.854Z,99.90
2018-04-17T21:50:32.112Z,99.90
2018-04-17T21:53:00.672Z,99.90
2018-04-17T21:55:29.236Z,99.90
2018-04-17T21:57:58.722Z,99.90
2018-04-17T22:00:27.372Z,99.90
2018-04-17T22:02:55.853Z,99.90
2018-04-17T22:05:24.358Z,99.90
2018-04-17T22:07:53.002Z,99.90
2018-04-17T22:10:21.497Z,99.90
2018-04-17T22:12:49.980Z,99.90
2018-04-17T22:15:18.473Z,99.90
2018-04-17T22:17:47.075Z,99.90
2018-04-17T22:20:15.342Z,99.90
2018-04-17T22:22:43.583Z,99.90
2018-04-17T22:25:11.846Z,99.90
2018-04-17T22:27:40.442Z,99.90
2018-04-17T22:30:08.922Z,99.90
2018-04-17T22:32:37.486Z,99.90
2018-04-17T22:35:06.729Z,99.90
2018-04-17T22:37:35.005Z,99.90
2018-04-17T22:40:03.494Z,99.90
2018-04-17T22:42:31.745Z,99.90
2018-04-17T22:44:59.984Z,99.90
2018-04-17T22:47:28.262Z,99.90
2018-04-17T22:49:56.506Z,99.90
2018-04-17T22:52:24.777Z,99.90
2018-04-17T22:54:53.013Z,99.90
2018-04-17T22:57:22.046Z,99.90
2018-04-17T22:59:50.340Z,99.90
2018-04-17T23:02:18.818Z,99.90
2018-04-17T23:04:47.314Z,99.90
2018-04-17T23:07:15.850Z,99.90
2018-04-17T23:09:44.367Z,99.90
2018-04-17T23:12:12.840Z,99.90
2018-04-17T23:14:41.339Z,99.90
2018-04-17T23:17:09.861Z,99.90
2018-04-17T23:19:39.134Z,99.90
2018-04-17T23:22:07.806Z,99.90
2018-04-17T23:24:36.305Z,99.90
2018-04-17T23:27:04.800Z,99.90
2018-04-17T23:29:34.097Z,99.90
2018-04-17T23:32:02.653Z,99.90
2018-04-17T23:34:31.149Z,99.90
2018-04-17T23:36:59.769Z,99.90
2018-04-17T23:39:29.009Z,99.90
2018-04-17T23:41:57.522Z,99.90
2018-04-17T23:44:26.009Z,99.90
2018-04-17T23:46:54.262Z,99.90
